AirNav   TITAN Aviation Fuels
 
 1277 users online  

07R Bishop-Windham Airport
Bishop, Texas, USA

GOING TO BISHOP?


FAA INFORMATION EFFECTIVE 11 AUGUST 2022

Location

FAA Identifier: 07R
Lat/Long: 27-36-36.6000N 097-45-09.1000W
27-36.610000N 097-45.151667W
27.6101667,-97.7525278
(estimated)
Elevation: 55 ft. / 17 m (estimated)
Variation: 07E (1985)
From city: 3 miles NE of BISHOP, TX
Time zone: UTC -5 (UTC -6 during Standard Time)
Zip code: 78343

Airport Operations

Airport use: Open to the public
Activation date: 08/1949
Control tower: no
ARTCC: HOUSTON CENTER
FSS: SAN ANGELO FLIGHT SERVICE STATION
NOTAMs facility: SJT (NOTAM-D service available)
Attendance: UNATNDD
Wind indicator: yes
Segmented circle: yes
Lights: SS-SR
Beacon: white-green (lighted land airport)
Operates sunset to sunrise.

Airport Communications

CTAF: 122.9
WX AWOS-3 at RBO (11 nm N): 118.175 (361-767-1982)
WX AWOS-3P at IKG (15 nm W): 119.075 (361-592-9152)
WX ASOS at CRP (16 nm NE): PHONE 361-289-0191
WX ASOS at ALI (17 nm NW): 119.225 (361-668-0069)

Nearby radio navigation aids

VOR radial/distance  VOR name  Freq  Var
ALIr113/(16.3)ALICE VOR114.5006E
CRPr214/24.0CORPUS CHRISTI VORTAC115.5009E

Airport Services

Parking: tiedowns

Runway Information

Runway 15/33

Dimensions: 3200 x 50 ft. / 975 x 15 m
Surface: asphalt, in fair condition
Weight bearing capacity: 
Single wheel: 12.5
Runway edge lights: medium intensity
RUNWAY 15  RUNWAY 33
Latitude: 27-36.843802N27-36.375995N
Longitude: 097-45.289173W097-45.013740W
Elevation: 53.0 ft.51.0 ft.
Traffic pattern: leftleft
Runway heading: 145 magnetic, 152 true325 magnetic, 332 true
Markings: basic, in fair conditionbasic, in fair condition
Obstructions: 15 ft. road, 519 ft. from runway, 155 ft. left of centerline, 21:1 slope to clear15 ft. road, 600 ft. from runway, 165 ft. right of centerline, 26:1 slope to clear

Airport Ownership and Management from official FAA records

Ownership: Publicly-owned
Owner: CITY OF BISHOP
PO BOX 356
BISHOP, TX 78343
Phone 361-584-2567
Manager: TEM MILLER
PO BOX 356
BISHOP, TX 78343
Phone 361-584-2567
EXT 106

Airport Operational Statistics

Aircraft based on the field: 24
Single engine airplanes: 23
Multi engine airplanes: 1
    
Aircraft operations: avg 23/week *
83% local general aviation
17% transient general aviation
* for 12-month period ending 05 May 2020

Additional Remarks

INTENSIVE MIL JET TFC 1300 FT AGL & ABV FROM KINGSVILLE NAS (NQI) 7 NM SW. CTC KINGSVILLE APCH 119.9 FOR INSTRNS.
FOR CD CTC HOUSTON ARTCC AT 281-230-5622.

Instrument Procedures

There are no published instrument procedures at 07R.

Some nearby airports with instrument procedures:

KNQI - Kingsville Naval Air Station (7 nm SW)
KRBO - Nueces County Airport (11 nm N)
KIKG - Kleberg County Airport (15 nm W)
KCRP - Corpus Christi International Airport (16 nm NE)
KALI - Alice International Airport (17 nm NW)
 
Loc | Ops | Rwys | IFR | FBO | Links
Com | Nav | Svcs | Stats | Notes
Area around 07R (Bishop-Windham Airport)
 
Road maps at: MapQuest Bing Google
 
Aerial photo
WARNING: Photo may not be current or correct
Aerial photo of 07R (Bishop-Windham Airport)
Do you have a better or more recent aerial photo of Bishop-Windham Airport that you would like to share? If so, please send us your photo.

 
Sectional chart

 
Airport distance calculator
Flying to Bishop-Windham Airport? Find the distance to fly.

From to 07R

Sunrise and sunset
Times for 16-Aug-2022
 Local
(UTC-5)
 Zulu
(UTC)
Morning civil twilight06:3911:39
Sunrise07:0312:03
Sunset20:0701:07
Evening civil twilight20:3201:32

Current date and time
Zulu (UTC)  16-Aug-2022 12:43:17
Local (UTC-5)  16-Aug-2022 07:43:17
 
METAR
KNQI 
7nm SW 
160356Z 12004KT 10SM SCT250 27/26 A2991 RMK SLP125 T02720256
KIKG 
15nm W 
161215Z AUTO 00000KT BKN015 BKN022 OVC031 25/24 A2990 RMK AO2 T02450242 PWINO
KALI 
16nm NW 
161153Z AUTO 08003KT 4SM BR BKN025 BKN032 24/24 A2989 RMK AO2 SLP118 70009 T02390239 10256 20239 53002
KCRP 
16nm NE 
161151Z 13005KT 10SM FEW019 BKN250 26/25 A2989 RMK AO2 SLP121 T02560250 10261 20256 53001
TAF
KNQI 
7nm SW 
1607/1707 15006G15KT 9999 FEW020 SCT250 QNH2986INS BECMG 1614/1616 15010G20KT 9999 BKN020 BKN250 QNH2983INS BECMG 1700/1702 17008KT 9999 FEW020 FEW250 QNH2987INS AUTOMATED SENSOR METWATCH 1607 TIL 1612 T26/1611Z T35/1620Z FN00259
KALI 
16nm NW 
161120Z 1612/1712 12004KT P6SM BKN020 FM161500 14010KT P6SM VCSH SCT025 BKN050 FM162100 12012G21KT P6SM FEW050 SCT250 FM170200 13007KT P6SM SKC
KCRP 
16nm NE 
161120Z 1612/1712 11006KT P6SM FEW020 BKN250 FM161400 13011G19KT P6SM SCT025 BKN250 FM161900 13012G21KT P6SM SCT035 BKN050 FM170100 14009KT P6SM SKC
NOTAMs
Click for the latest NOTAMs
NOTAMs are issued by the DoD/FAA and will open in a separate window not controlled by AirNav.

 

 
 

FBO, Fuel Providers, and Aircraft Ground Support

  
 Business Name 
 
 Contact 
 
 Services / Description 
 
Fuel Prices
 
Comments
  
Bishop Airport 361-584-2567
no information available

If you are affiliated with Bishop Airport and would like to show here your services, contact info, web link, logo, and more, click here
100LL
RA $3.90 
 Updated 03-Dec-2019
 
   write
RA=Restricted
Update Fuel Prices
 

Would you like to see your business listed on this page?

 If your business provides an interesting product or service to pilots, flight crews, aircraft, or users of the Bishop-Windham Airport, you should consider listing it here.  To start the listing process, click on the button below
 
Add a business
 

Other Pages about Bishop-Windham Airport

Update a link
 
Copyright © AirNav, LLC. All rights reserved. Privacy Policy  Contact